sensor_id;sensor_type;location;lat;lon;timestamp;temperature;humidity
22112;DHT22;11222;50.872;4.312;2023-03-01T00:01:09;2.40;99.90
22112;DHT22;11222;50.872;4.312;2023-03-01T00:03:36;2.30;99.90
22112;DHT22;11222;50.872;4.312;2023-03-01T00:06:03;2.20;99.90
22112;DHT22;11222;50.872;4.312;2023-03-01T00:08:29;2.30;99.90
22112;DHT22;11222;50.872;4.312;2023-03-01T00:11:05;2.40;99.90
22112;DHT22;11222;50.872;4.312;2023-03-01T00:13:32;2.40;99.90
22112;DHT22;11222;50.872;4.312;2023-03-01T00:15:57;2.30;99.90
22112;DHT22;11222;50.872;4.312;2023-03-01T00:18:23;2.20;99.90
22112;DHT22;11222;50.872;4.312;2023-03-01T00:20:50;2.30;99.90
22112;DHT22;11222;50.872;4.312;2023-03-01T00:23:16;2.30;99.90
22112;DHT22;11222;50.872;4.312;2023-03-01T00:25:43;2.40;99.90
22112;DHT22;11222;50.872;4.312;2023-03-01T00:28:09;2.50;99.90
22112;DHT22;11222;50.872;4.312;2023-03-01T00:30:34;2.50;99.90
22112;DHT22;11222;50.872;4.312;2023-03-01T00:33:00;2.50;99.90
22112;DHT22;11222;50.872;4.312;2023-03-01T00:35:25;2.40;99.90
22112;DHT22;11222;50.872;4.312;2023-03-01T00:37:51;2.40;99.90
22112;DHT22;11222;50.872;4.312;2023-03-01T00:40:23;2.30;99.90
22112;DHT22;11222;50.872;4.312;2023-03-01T00:42:49;2.20;99.90
22112;DHT22;11222;50.872;4.312;2023-03-01T00:45:15;2.20;99.90
22112;DHT22;11222;50.872;4.312;2023-03-01T00:47:41;2.20;99.90
22112;DHT22;11222;50.872;4.312;2023-03-01T00:50:07;2.10;99.90
22112;DHT22;11222;50.872;4.312;2023-03-01T00:52:33;2.20;99.90
22112;DHT22;11222;50.872;4.312;2023-03-01T00:54:59;2.20;99.90
22112;DHT22;11222;50.872;4.312;2023-03-01T00:57:25;2.10;99.90
22112;DHT22;11222;50.872;4.312;2023-03-01T00:59:51;2.20;99.90
22112;DHT22;11222;50.872;4.312;2023-03-01T01:02:18;2.20;99.90
22112;DHT22;11222;50.872;4.312;2023-03-01T01:04:45;2.30;99.90
22112;DHT22;11222;50.872;4.312;2023-03-01T01:07:10;2.30;99.90
22112;DHT22;11222;50.872;4.312;2023-03-01T01:09:36;2.10;99.90
22112;DHT22;11222;50.872;4.312;2023-03-01T01:12:03;2.10;99.90
22112;DHT22;11222;50.872;4.312;2023-03-01T01:14:29;2.00;99.90
22112;DHT22;11222;50.872;4.312;2023-03-01T01:16:54;2.00;99.90
22112;DHT22;11222;50.872;4.312;2023-03-01T01:19:20;1.90;99.90
22112;DHT22;11222;50.872;4.312;2023-03-01T01:21:46;1.90;99.90
22112;DHT22;11222;50.872;4.312;2023-03-01T01:24:14;1.90;99.90
22112;DHT22;11222;50.872;4.312;2023-03-01T01:26:40;1.90;99.90
22112;DHT22;11222;50.872;4.312;2023-03-01T01:29:06;1.80;99.90
22112;DHT22;11222;50.872;4.312;2023-03-01T01:31:33;1.90;99.90
22112;DHT22;11222;50.872;4.312;2023-03-01T01:34:01;1.80;99.90
22112;DHT22;11222;50.872;4.312;2023-03-01T01:36:27;1.80;99.90
22112;DHT22;11222;50.872;4.312;2023-03-01T01:38:53;1.70;99.90
22112;DHT22;11222;50.872;4.312;2023-03-01T01:41:20;1.70;99.90
22112;DHT22;11222;50.872;4.312;2023-03-01T01:44:11;1.70;99.90
22112;DHT22;11222;50.872;4.312;2023-03-01T01:46:41;1.80;99.90
22112;DHT22;11222;50.872;4.312;2023-03-01T01:49:25;1.70;99.90
22112;DHT22;11222;50.872;4.312;2023-03-01T01:52:07;1.80;99.90
22112;DHT22;11222;50.872;4.312;2023-03-01T01:57:13;1.80;99.90
22112;DHT22;11222;50.872;4.312;2023-03-01T01:59:41;1.70;99.90
22112;DHT22;11222;50.872;4.312;2023-03-01T02:02:09;1.60;99.90
22112;DHT22;11222;50.872;4.312;2023-03-01T02:04:34;1.70;99.90
22112;DHT22;11222;50.872;4.312;2023-03-01T02:07:14;1.70;99.90
22112;DHT22;11222;50.872;4.312;2023-03-01T02:09:43;1.80;99.90
22112;DHT22;11222;50.872;4.312;2023-03-01T02:12:10;1.80;99.90
22112;DHT22;11222;50.872;4.312;2023-03-01T02:14:36;1.80;99.90
22112;DHT22;11222;50.872;4.312;2023-03-01T02:17:02;1.80;99.90
22112;DHT22;11222;50.872;4.312;2023-03-01T02:19:52;1.70;99.90
22112;DHT22;11222;50.872;4.312;2023-03-01T02:22:27;1.70;99.90
22112;DHT22;11222;50.872;4.312;2023-03-01T02:30:25;1.50;99.90
22112;DHT22;11222;50.872;4.312;2023-03-01T02:32:52;1.50;99.90
22112;DHT22;11222;50.872;4.312;2023-03-01T02:35:20;1.50;99.90
22112;DHT22;11222;50.872;4.312;2023-03-01T02:37:46;1.50;99.90
22112;DHT22;11222;50.872;4.312;2023-03-01T02:40:18;1.50;99.90
22112;DHT22;11222;50.872;4.312;2023-03-01T02:42:58;1.60;99.90
22112;DHT22;11222;50.872;4.312;2023-03-01T02:45:25;1.60;99.90
22112;DHT22;11222;50.872;4.312;2023-03-01T02:47:54;1.40;99.90
22112;DHT22;11222;50.872;4.312;2023-03-01T02:50:50;1.40;99.90
22112;DHT22;11222;50.872;4.312;2023-03-01T02:53:27;1.40;99.90
22112;DHT22;11222;50.872;4.312;2023-03-01T02:55:55;1.40;99.90
22112;DHT22;11222;50.872;4.312;2023-03-01T02:58:21;1.40;99.90
22112;DHT22;11222;50.872;4.312;2023-03-01T03:00:46;1.30;99.90
22112;DHT22;11222;50.872;4.312;2023-03-01T03:03:16;1.20;99.90
22112;DHT22;11222;50.872;4.312;2023-03-01T03:05:43;1.20;99.90
22112;DHT22;11222;50.872;4.312;2023-03-01T03:08:09;1.30;99.90
22112;DHT22;11222;50.872;4.312;2023-03-01T03:10:38;1.30;99.90
22112;DHT22;11222;50.872;4.312;2023-03-01T03:13:10;1.20;99.90
22112;DHT22;11222;50.872;4.312;2023-03-01T03:15:37;1.20;99.90
22112;DHT22;11222;50.872;4.312;2023-03-01T03:18:06;1.30;99.90
22112;DHT22;11222;50.872;4.312;2023-03-01T03:20:33;1.30;99.90
22112;DHT22;11222;50.872;4.312;2023-03-01T03:22:59;1.50;99.90
22112;DHT22;11222;50.872;4.312;2023-03-01T03:25:26;1.40;99.90
22112;DHT22;11222;50.872;4.312;2023-03-01T03:27:53;1.20;99.90
22112;DHT22;11222;50.872;4.312;2023-03-01T03:30:27;1.10;99.90
22112;DHT22;11222;50.872;4.312;2023-03-01T03:32:53;1.10;99.90
22112;DHT22;11222;50.872;4.312;2023-03-01T03:37:50;1.00;99.90
22112;DHT22;11222;50.872;4.312;2023-03-01T03:40:32;0.90;99.90
22112;DHT22;11222;50.872;4.312;2023-03-01T03:42:58;0.80;99.90
22112;DHT22;11222;50.872;4.312;2023-03-01T03:45:24;0.90;99.90
22112;DHT22;11222;50.872;4.312;2023-03-01T03:47:49;0.90;99.90
22112;DHT22;11222;50.872;4.312;2023-03-01T03:50:16;0.90;99.90
22112;DHT22;11222;50.872;4.312;2023-03-01T03:52:43;0.80;99.90
22112;DHT22;11222;50.872;4.312;2023-03-01T03:55:10;0.80;99.90
22112;DHT22;11222;50.872;4.312;2023-03-01T03:57:37;0.80;99.90
22112;DHT22;11222;50.872;4.312;2023-03-01T04:00:06;0.70;99.90
22112;DHT22;11222;50.872;4.312;2023-03-01T04:02:39;0.60;99.90
22112;DHT22;11222;50.872;4.312;2023-03-01T04:05:05;0.60;99.90
22112;DHT22;11222;50.872;4.312;2023-03-01T04:07:31;0.60;99.90
22112;DHT22;11222;50.872;4.312;2023-03-01T04:09:57;0.70;99.90
22112;DHT22;11222;50.872;4.312;2023-03-01T04:12:22;0.70;99.90
22112;DHT22;11222;50.872;4.312;2023-03-01T04:14:48;0.70;99.90
22112;DHT22;11222;50.872;4.312;2023-03-01T04:17:14;0.70;99.90
22112;DHT22;11222;50.872;4.312;2023-03-01T04:19:39;0.60;99.90
22112;DHT22;11222;50.872;4.312;2023-03-01T04:22:05;0.70;99.90
22112;DHT22;11222;50.872;4.312;2023-03-01T04:24:37;0.70;99.90
22112;DHT22;11222;50.872;4.312;2023-03-01T04:27:03;0.60;99.90
22112;DHT22;11222;50.872;4.312;2023-03-01T04:29:29;0.50;99.90
22112;DHT22;11222;50.872;4.312;2023-03-01T04:31:55;0.60;99.90
22112;DHT22;11222;50.872;4.312;2023-03-01T04:34:20;0.60;99.90
22112;DHT22;11222;50.872;4.312;2023-03-01T04:36:46;0.70;99.90
22112;DHT22;11222;50.872;4.312;2023-03-01T04:39:12;0.80;99.90
22112;DHT22;11222;50.872;4.312;2023-03-01T04:41:38;0.80;99.90
22112;DHT22;11222;50.872;4.312;2023-03-01T04:44:05;0.70;99.90
22112;DHT22;11222;50.872;4.312;2023-03-01T04:46:31;0.60;99.90
22112;DHT22;11222;50.872;4.312;2023-03-01T04:48:56;0.50;99.90
22112;DHT22;11222;50.872;4.312;2023-03-01T04:51:22;0.50;99.90
22112;DHT22;11222;50.872;4.312;2023-03-01T04:53:48;0.60;99.90
22112;DHT22;11222;50.872;4.312;2023-03-01T04:56:14;0.60;99.90
22112;DHT22;11222;50.872;4.312;2023-03-01T04:58:40;0.60;99.90
22112;DHT22;11222;50.872;4.312;2023-03-01T05:01:18;0.60;99.90
22112;DHT22;11222;50.872;4.312;2023-03-01T05:03:46;0.50;99.90
22112;DHT22;11222;50.872;4.312;2023-03-01T05:06:12;0.50;99.90
22112;DHT22;11222;50.872;4.312;2023-03-01T05:08:39;0.40;99.90
22112;DHT22;11222;50.872;4.312;2023-03-01T05:11:05;0.40;99.90
22112;DHT22;11222;50.872;4.312;2023-03-01T05:13:35;0.30;99.90
22112;DHT22;11222;50.872;4.312;2023-03-01T05:16:01;0.40;99.90
22112;DHT22;11222;50.872;4.312;2023-03-01T05:18:30;0.50;99.90
22112;DHT22;11222;50.872;4.312;2023-03-01T05:21:01;0.50;99.90
22112;DHT22;11222;50.872;4.312;2023-03-01T05:23:30;0.60;99.90
22112;DHT22;11222;50.872;4.312;2023-03-01T05:26:00;0.50;99.90
22112;DHT22;11222;50.872;4.312;2023-03-01T05:28:26;0.50;99.90
22112;DHT22;11222;50.872;4.312;2023-03-01T05:30:54;0.40;99.90
22112;DHT22;11222;50.872;4.312;2023-03-01T05:33:20;0.50;99.90
22112;DHT22;11222;50.872;4.312;2023-03-01T05:35:47;0.50;99.90
22112;DHT22;11222;50.872;4.312;2023-03-01T05:38:14;0.50;99.90
22112;DHT22;11222;50.872;4.312;2023-03-01T05:40:44;0.50;99.90
22112;DHT22;11222;50.872;4.312;2023-03-01T05:43:11;0.40;99.90
22112;DHT22;11222;50.872;4.312;2023-03-01T05:45:38;0.40;99.90
22112;DHT22;11222;50.872;4.312;2023-03-01T05:48:05;0.40;99.90
22112;DHT22;11222;50.872;4.312;2023-03-01T05:50:37;0.40;99.90
22112;DHT22;11222;50.872;4.312;2023-03-01T05:53:05;0.50;99.90
22112;DHT22;11222;50.872;4.312;2023-03-01T05:55:32;0.50;99.90
22112;DHT22;11222;50.872;4.312;2023-03-01T05:57:59;0.50;99.90
22112;DHT22;11222;50.872;4.312;2023-03-01T06:00:26;0.40;99.90
22112;DHT22;11222;50.872;4.312;2023-03-01T06:02:53;0.30;99.90
22112;DHT22;11222;50.872;4.312;2023-03-01T06:05:19;0.30;99.90
22112;DHT22;11222;50.872;4.312;2023-03-01T06:07:45;0.30;99.90
22112;DHT22;11222;50.872;4.312;2023-03-01T06:10:12;0.30;99.90
22112;DHT22;11222;50.872;4.312;2023-03-01T06:12:41;0.20;99.90
22112;DHT22;11222;50.872;4.312;2023-03-01T06:15:09;0.10;99.90
22112;DHT22;11222;50.872;4.312;2023-03-01T06:17:36;0.10;99.90
22112;DHT22;11222;50.872;4.312;2023-03-01T06:20:09;0.20;99.90
22112;DHT22;11222;50.872;4.312;2023-03-01T06:22:36;0.10;99.90
22112;DHT22;11222;50.872;4.312;2023-03-01T06:25:02;0.10;99.90
22112;DHT22;11222;50.872;4.312;2023-03-01T06:27:28;0.10;99.90
22112;DHT22;11222;50.872;4.312;2023-03-01T06:29:53;0.10;99.90
22112;DHT22;11222;50.872;4.312;2023-03-01T06:32:19;0.10;99.90
22112;DHT22;11222;50.872;4.312;2023-03-01T06:34:45;0.10;99.90
22112;DHT22;11222;50.872;4.312;2023-03-01T06:37:11;0.10;99.90
22112;DHT22;11222;50.872;4.312;2023-03-01T06:39:37;0.20;99.90
22112;DHT22;11222;50.872;4.312;2023-03-01T06:42:03;0.20;99.90
22112;DHT22;11222;50.872;4.312;2023-03-01T06:44:29;0.20;99.90
22112;DHT22;11222;50.872;4.312;2023-03-01T06:46:55;0.10;99.90
22112;DHT22;11222;50.872;4.312;2023-03-01T06:49:21;0.10;99.90
22112;DHT22;11222;50.872;4.312;2023-03-01T06:51:47;0.20;99.90
22112;DHT22;11222;50.872;4.312;2023-03-01T06:54:13;0.30;99.90
22112;DHT22;11222;50.872;4.312;2023-03-01T06:56:39;0.20;99.90
22112;DHT22;11222;50.872;4.312;2023-03-01T06:59:04;0.10;99.90
22112;DHT22;11222;50.872;4.312;2023-03-01T07:01:30;0.10;99.90
22112;DHT22;11222;50.872;4.312;2023-03-01T07:03:57;0.00;99.90
22112;DHT22;11222;50.872;4.312;2023-03-01T07:06:23;0.10;99.90
22112;DHT22;11222;50.872;4.312;2023-03-01T07:08:49;0.00;99.90
22112;DHT22;11222;50.872;4.312;2023-03-01T07:11:15;0.00;99.90
22112;DHT22;11222;50.872;4.312;2023-03-01T07:13:41;0.00;99.90
22112;DHT22;11222;50.872;4.312;2023-03-01T07:16:07;0.10;99.90
22112;DHT22;11222;50.872;4.312;2023-03-01T07:18:33;0.20;99.90
22112;DHT22;11222;50.872;4.312;2023-03-01T07:21:07;0.20;99.90
22112;DHT22;11222;50.872;4.312;2023-03-01T07:23:33;0.20;99.90
22112;DHT22;11222;50.872;4.312;2023-03-01T07:25:58;0.20;99.90
22112;DHT22;11222;50.872;4.312;2023-03-01T07:28:24;0.20;99.90
22112;DHT22;11222;50.872;4.312;2023-03-01T07:30:50;0.30;99.90
22112;DHT22;11222;50.872;4.312;2023-03-01T07:33:16;0.40;99.90
22112;DHT22;11222;50.872;4.312;2023-03-01T07:35:42;0.40;99.90
22112;DHT22;11222;50.872;4.312;2023-03-01T07:38:08;0.40;99.90
22112;DHT22;11222;50.872;4.312;2023-03-01T07:40:33;0.40;99.90
22112;DHT22;11222;50.872;4.312;2023-03-01T07:42:59;0.40;99.90
22112;DHT22;11222;50.872;4.312;2023-03-01T07:45:27;0.40;99.90
22112;DHT22;11222;50.872;4.312;2023-03-01T07:47:53;0.50;99.90
22112;DHT22;11222;50.872;4.312;2023-03-01T07:50:19;0.50;99.90
22112;DHT22;11222;50.872;4.312;2023-03-01T07:52:46;0.50;99.90
22112;DHT22;11222;50.872;4.312;2023-03-01T07:55:12;0.50;99.90
22112;DHT22;11222;50.872;4.312;2023-03-01T07:57:38;0.50;99.90
22112;DHT22;11222;50.872;4.312;2023-03-01T08:00:06;0.60;99.90
22112;DHT22;11222;50.872;4.312;2023-03-01T08:02:32;0.60;99.90
22112;DHT22;11222;50.872;4.312;2023-03-01T08:04:58;0.60;99.90
22112;DHT22;11222;50.872;4.312;2023-03-01T08:07:23;0.70;99.90
22112;DHT22;11222;50.872;4.312;2023-03-01T08:09:49;0.70;99.90
22112;DHT22;11222;50.872;4.312;2023-03-01T08:12:15;0.80;99.90
22112;DHT22;11222;50.872;4.312;2023-03-01T08:14:42;0.90;99.90
22112;DHT22;11222;50.872;4.312;2023-03-01T08:17:08;0.90;99.90
22112;DHT22;11222;50.872;4.312;2023-03-01T08:19:34;0.90;99.90
22112;DHT22;11222;50.872;4.312;2023-03-01T08:22:02;1.00;99.90
22112;DHT22;11222;50.872;4.312;2023-03-01T08:24:28;1.10;99.90
22112;DHT22;11222;50.872;4.312;2023-03-01T08:26:54;1.10;99.90
22112;DHT22;11222;50.872;4.312;2023-03-01T08:29:20;1.10;99.90
22112;DHT22;11222;50.872;4.312;2023-03-01T08:31:46;1.20;99.90
22112;DHT22;11222;50.872;4.312;2023-03-01T08:34:14;1.20;99.90
22112;DHT22;11222;50.872;4.312;2023-03-01T08:36:42;1.20;99.90
22112;DHT22;11222;50.872;4.312;2023-03-01T08:39:09;1.30;99.90
22112;DHT22;11222;50.872;4.312;2023-03-01T08:41:35;1.30;99.90
22112;DHT22;11222;50.872;4.312;2023-03-01T08:44:01;1.40;99.90
22112;DHT22;11222;50.872;4.312;2023-03-01T08:46:29;1.50;99.90
22112;DHT22;11222;50.872;4.312;2023-03-01T08:48:54;1.50;99.90
22112;DHT22;11222;50.872;4.312;2023-03-01T08:51:21;1.60;99.90
22112;DHT22;11222;50.872;4.312;2023-03-01T08:53:48;1.70;99.90
22112;DHT22;11222;50.872;4.312;2023-03-01T08:56:14;1.70;99.90
22112;DHT22;11222;50.872;4.312;2023-03-01T08:58:47;1.70;99.90
22112;DHT22;11222;50.872;4.312;2023-03-01T09:01:15;1.80;99.90
22112;DHT22;11222;50.872;4.312;2023-03-01T09:03:42;1.80;99.90
22112;DHT22;11222;50.872;4.312;2023-03-01T09:06:08;1.80;99.90
22112;DHT22;11222;50.872;4.312;2023-03-01T09:08:39;1.80;99.90
22112;DHT22;11222;50.872;4.312;2023-03-01T09:11:07;1.90;99.90
22112;DHT22;11222;50.872;4.312;2023-03-01T09:13:34;2.00;99.90
22112;DHT22;11222;50.872;4.312;2023-03-01T09:16:01;2.20;99.90
22112;DHT22;11222;50.872;4.312;2023-03-01T09:18:28;2.20;99.90
22112;DHT22;11222;50.872;4.312;2023-03-01T09:21:08;2.20;99.90
22112;DHT22;11222;50.872;4.312;2023-03-01T09:23:45;2.30;99.90
22112;DHT22;11222;50.872;4.312;2023-03-01T09:26:16;2.40;99.90
22112;DHT22;11222;50.872;4.312;2023-03-01T09:28:44;2.40;99.90
22112;DHT22;11222;50.872;4.312;2023-03-01T09:31:11;2.50;99.90
22112;DHT22;11222;50.872;4.312;2023-03-01T09:33:41;2.60;99.90
22112;DHT22;11222;50.872;4.312;2023-03-01T09:36:11;2.60;99.90
22112;DHT22;11222;50.872;4.312;2023-03-01T09:38:37;2.70;99.90
22112;DHT22;11222;50.872;4.312;2023-03-01T09:44:08;2.70;99.90
22112;DHT22;11222;50.872;4.312;2023-03-01T09:46:41;2.90;99.90
22112;DHT22;11222;50.872;4.312;2023-03-01T09:49:19;3.00;99.90
22112;DHT22;11222;50.872;4.312;2023-03-01T09:54:37;2.90;99.90
22112;DHT22;11222;50.872;4.312;2023-03-01T10:02:33;3.20;99.90
22112;DHT22;11222;50.872;4.312;2023-03-01T10:07:39;3.30;99.90
22112;DHT22;11222;50.872;4.312;2023-03-01T10:10:22;3.20;99.90
22112;DHT22;11222;50.872;4.312;2023-03-01T10:12:49;3.40;99.90
22112;DHT22;11222;50.872;4.312;2023-03-01T10:15:18;3.50;99.90
22112;DHT22;11222;50.872;4.312;2023-03-01T10:18:06;3.60;99.90
22112;DHT22;11222;50.872;4.312;2023-03-01T10:20:45;3.70;99.90
22112;DHT22;11222;50.872;4.312;2023-03-01T10:23:12;3.90;99.90
22112;DHT22;11222;50.872;4.312;2023-03-01T10:25:42;4.00;99.90
22112;DHT22;11222;50.872;4.312;2023-03-01T10:28:38;4.00;99.90
22112;DHT22;11222;50.872;4.312;2023-03-01T10:31:12;4.20;99.90
22112;DHT22;11222;50.872;4.312;2023-03-01T10:33:38;5.00;99.90
22112;DHT22;11222;50.872;4.312;2023-03-01T10:36:08;6.10;99.90
22112;DHT22;11222;50.872;4.312;2023-03-01T10:41:15;7.80;99.90
22112;DHT22;11222;50.872;4.312;2023-03-01T10:43:45;8.20;99.90
22112;DHT22;11222;50.872;4.312;2023-03-01T10:46:30;9.20;99.90
22112;DHT22;11222;50.872;4.312;2023-03-01T10:49:21;10.10;99.90
22112;DHT22;11222;50.872;4.312;2023-03-01T10:51:49;9.40;99.90
22112;DHT22;11222;50.872;4.312;2023-03-01T10:54:30;9.30;99.90
22112;DHT22;11222;50.872;4.312;2023-03-01T10:57:01;8.50;99.90
22112;DHT22;11222;50.872;4.312;2023-03-01T10:59:33;9.00;99.90
22112;DHT22;11222;50.872;4.312;2023-03-01T11:07:28;10.80;99.90
22112;DHT22;11222;50.872;4.312;2023-03-01T11:09:55;11.70;99.90
22112;DHT22;11222;50.872;4.312;2023-03-01T11:12:21;11.80;99.90
22112;DHT22;11222;50.872;4.312;2023-03-01T11:14:52;12.00;99.90
22112;DHT22;11222;50.872;4.312;2023-03-01T11:17:32;11.80;99.90
22112;DHT22;11222;50.872;4.312;2023-03-01T11:22:54;11.30;99.70
22112;DHT22;11222;50.872;4.312;2023-03-01T11:25:25;10.40;99.90
22112;DHT22;11222;50.872;4.312;2023-03-01T11:27:52;10.70;99.90
22112;DHT22;11222;50.872;4.312;2023-03-01T11:30:27;9.70;99.90
22112;DHT22;11222;50.872;4.312;2023-03-01T11:35:25;10.10;99.90
22112;DHT22;11222;50.872;4.312;2023-03-01T11:38:21;9.50;99.90
22112;DHT22;11222;50.872;4.312;2023-03-01T11:43:26;11.20;99.90
22112;DHT22;11222;50.872;4.312;2023-03-01T11:46:20;12.40;96.40
22112;DHT22;11222;50.872;4.312;2023-03-01T11:57:33;11.80;96.60
22112;DHT22;11222;50.872;4.312;2023-03-01T12:05:32;12.60;94.60
22112;DHT22;11222;50.872;4.312;2023-03-01T12:10:59;12.60;93.70
22112;DHT22;11222;50.872;4.312;2023-03-01T12:19:35;13.80;91.30
22112;DHT22;11222;50.872;4.312;2023-03-01T12:22:31;12.30;91.40
22112;DHT22;11222;50.872;4.312;2023-03-01T12:25:07;11.90;92.20
22112;DHT22;11222;50.872;4.312;2023-03-01T12:28:04;9.50;95.40
22112;DHT22;11222;50.872;4.312;2023-03-01T12:33:22;9.40;97.30
22112;DHT22;11222;50.872;4.312;2023-03-01T12:39:22;8.20;97.80
22112;DHT22;11222;50.872;4.312;2023-03-01T12:50:26;7.60;99.90
22112;DHT22;11222;50.872;4.312;2023-03-01T12:52:58;7.50;99.90
22112;DHT22;11222;50.872;4.312;2023-03-01T12:55:37;7.60;99.90
22112;DHT22;11222;50.872;4.312;2023-03-01T13:00:45;7.60;99.90
22112;DHT22;11222;50.872;4.312;2023-03-01T13:11:20;7.40;99.90
22112;DHT22;11222;50.872;4.312;2023-03-01T13:13:47;7.30;99.90
22112;DHT22;11222;50.872;4.312;2023-03-01T13:19:26;7.20;99.90
22112;DHT22;11222;50.872;4.312;2023-03-01T13:21:54;7.30;99.90
22112;DHT22;11222;50.872;4.312;2023-03-01T13:24:35;7.30;99.90
22112;DHT22;11222;50.872;4.312;2023-03-01T13:27:23;7.20;99.90
22112;DHT22;11222;50.872;4.312;2023-03-01T13:29:59;7.10;99.90
22112;DHT22;11222;50.872;4.312;2023-03-01T13:32:36;7.10;99.90
22112;DHT22;11222;50.872;4.312;2023-03-01T13:37:43;7.30;99.90
22112;DHT22;11222;50.872;4.312;2023-03-01T13:42:43;7.20;99.90
22112;DHT22;11222;50.872;4.312;2023-03-01T13:47:58;7.20;99.90
22112;DHT22;11222;50.872;4.312;2023-03-01T13:50:29;7.30;99.90
22112;DHT22;11222;50.872;4.312;2023-03-01T13:53:02;7.20;99.90
22112;DHT22;11222;50.872;4.312;2023-03-01T13:55:55;7.20;99.90
22112;DHT22;11222;50.872;4.312;2023-03-01T14:01:03;7.10;99.90
22112;DHT22;11222;50.872;4.312;2023-03-01T14:03:31;7.20;99.90
22112;DHT22;11222;50.872;4.312;2023-03-01T14:08:27;7.30;99.90
22112;DHT22;11222;50.872;4.312;2023-03-01T14:19:22;7.30;99.90
22112;DHT22;11222;50.872;4.312;2023-03-01T14:24:58;7.20;99.90
22112;DHT22;11222;50.872;4.312;2023-03-01T14:27:38;7.10;99.90
22112;DHT22;11222;50.872;4.312;2023-03-01T14:30:26;7.20;99.90
22112;DHT22;11222;50.872;4.312;2023-03-01T14:33:00;7.20;99.90
22112;DHT22;11222;50.872;4.312;2023-03-01T14:35:36;7.20;99.90
22112;DHT22;11222;50.872;4.312;2023-03-01T14:38:03;7.20;99.90
22112;DHT22;11222;50.872;4.312;2023-03-01T14:40:31;7.30;99.90
22112;DHT22;11222;50.872;4.312;2023-03-01T14:43:00;7.40;99.90
22112;DHT22;11222;50.872;4.312;2023-03-01T14:45:28;7.40;99.90
22112;DHT22;11222;50.872;4.312;2023-03-01T14:47:55;7.50;99.90
22112;DHT22;11222;50.872;4.312;2023-03-01T14:50:31;7.50;99.90
22112;DHT22;11222;50.872;4.312;2023-03-01T14:53:02;7.50;99.90
22112;DHT22;11222;50.872;4.312;2023-03-01T14:55:37;7.50;99.90
22112;DHT22;11222;50.872;4.312;2023-03-01T14:58:11;7.40;99.90
22112;DHT22;11222;50.872;4.312;2023-03-01T15:00:37;7.40;99.90
22112;DHT22;11222;50.872;4.312;2023-03-01T15:03:11;7.50;99.90
22112;DHT22;11222;50.872;4.312;2023-03-01T15:05:40;7.60;99.90
22112;DHT22;11222;50.872;4.312;2023-03-01T15:08:07;7.60;99.90
22112;DHT22;11222;50.872;4.312;2023-03-01T15:10:37;7.60;99.90
22112;DHT22;11222;50.872;4.312;2023-03-01T15:13:22;7.60;99.90
22112;DHT22;11222;50.872;4.312;2023-03-01T15:15:50;7.40;99.90
22112;DHT22;11222;50.872;4.312;2023-03-01T15:18:22;7.40;99.90
22112;DHT22;11222;50.872;4.312;2023-03-01T15:20:51;7.30;99.90
22112;DHT22;11222;50.872;4.312;2023-03-01T15:23:24;7.30;99.90
22112;DHT22;11222;50.872;4.312;2023-03-01T15:25:52;7.40;99.90
22112;DHT22;11222;50.872;4.312;2023-03-01T15:28:33;7.30;99.90
22112;DHT22;11222;50.872;4.312;2023-03-01T15:31:21;7.30;99.90
22112;DHT22;11222;50.872;4.312;2023-03-01T15:33:47;7.30;99.90
22112;DHT22;11222;50.872;4.312;2023-03-01T15:39:02;7.50;99.90
22112;DHT22;11222;50.872;4.312;2023-03-01T15:41:38;7.60;99.90
22112;DHT22;11222;50.872;4.312;2023-03-01T15:44:37;7.50;99.90
22112;DHT22;11222;50.872;4.312;2023-03-01T15:47:26;7.50;99.90
22112;DHT22;11222;50.872;4.312;2023-03-01T15:49:54;7.40;99.90
22112;DHT22;11222;50.872;4.312;2023-03-01T15:52:34;7.40;99.90
22112;DHT22;11222;50.872;4.312;2023-03-01T15:55:06;7.40;99.90
22112;DHT22;11222;50.872;4.312;2023-03-01T15:57:36;7.40;99.90
22112;DHT22;11222;50.872;4.312;2023-03-01T16:00:02;7.40;99.90
22112;DHT22;11222;50.872;4.312;2023-03-01T16:02:37;7.30;99.90
22112;DHT22;11222;50.872;4.312;2023-03-01T16:05:03;7.20;99.90
22112;DHT22;11222;50.872;4.312;2023-03-01T16:07:29;7.20;99.90
22112;DHT22;11222;50.872;4.312;2023-03-01T16:09:56;7.30;99.90
22112;DHT22;11222;50.872;4.312;2023-03-01T16:12:22;7.20;99.90
22112;DHT22;11222;50.872;4.312;2023-03-01T16:14:50;7.10;99.90
22112;DHT22;11222;50.872;4.312;2023-03-01T16:17:16;7.10;99.90
22112;DHT22;11222;50.872;4.312;2023-03-01T16:19:41;7.10;99.90
22112;DHT22;11222;50.872;4.312;2023-03-01T16:22:10;7.00;99.90
22112;DHT22;11222;50.872;4.312;2023-03-01T16:24:35;6.90;99.90
22112;DHT22;11222;50.872;4.312;2023-03-01T16:27:02;6.80;99.90
22112;DHT22;11222;50.872;4.312;2023-03-01T16:29:28;6.80;99.90
22112;DHT22;11222;50.872;4.312;2023-03-01T16:31:54;6.80;99.90
22112;DHT22;11222;50.872;4.312;2023-03-01T16:34:20;6.80;99.90
22112;DHT22;11222;50.872;4.312;2023-03-01T16:36:47;6.90;99.90
22112;DHT22;11222;50.872;4.312;2023-03-01T16:39:13;6.90;99.90
22112;DHT22;11222;50.872;4.312;2023-03-01T16:41:39;6.80;99.90
22112;DHT22;11222;50.872;4.312;2023-03-01T16:44:04;6.80;99.90
22112;DHT22;11222;50.872;4.312;2023-03-01T16:46:30;6.80;99.90
22112;DHT22;11222;50.872;4.312;2023-03-01T16:48:56;6.80;99.90
22112;DHT22;11222;50.872;4.312;2023-03-01T16:51:23;6.80;99.90
22112;DHT22;11222;50.872;4.312;2023-03-01T16:53:50;6.70;99.90
22112;DHT22;11222;50.872;4.312;2023-03-01T16:56:17;6.60;99.90
22112;DHT22;11222;50.872;4.312;2023-03-01T16:58:43;6.60;99.90
22112;DHT22;11222;50.872;4.312;2023-03-01T17:01:14;6.50;99.90
22112;DHT22;11222;50.872;4.312;2023-03-01T17:03:41;6.50;99.90
22112;DHT22;11222;50.872;4.312;2023-03-01T17:06:14;6.50;99.90
22112;DHT22;11222;50.872;4.312;2023-03-01T17:08:41;6.50;99.90
22112;DHT22;11222;50.872;4.312;2023-03-01T17:11:09;6.40;99.90
22112;DHT22;11222;50.872;4.312;2023-03-01T17:13:36;6.40;99.90
22112;DHT22;11222;50.872;4.312;2023-03-01T17:16:06;6.30;99.90
22112;DHT22;11222;50.872;4.312;2023-03-01T17:18:32;6.30;99.90
22112;DHT22;11222;50.872;4.312;2023-03-01T17:20:58;6.20;99.90
22112;DHT22;11222;50.872;4.312;2023-03-01T17:23:24;6.20;99.90
22112;DHT22;11222;50.872;4.312;2023-03-01T17:25:50;6.20;99.90
22112;DHT22;11222;50.872;4.312;2023-03-01T17:28:17;6.20;99.90
22112;DHT22;11222;50.872;4.312;2023-03-01T17:30:43;6.20;99.90
22112;DHT22;11222;50.872;4.312;2023-03-01T17:33:10;6.20;99.90
22112;DHT22;11222;50.872;4.312;2023-03-01T17:35:36;6.10;99.90
22112;DHT22;11222;50.872;4.312;2023-03-01T17:38:03;6.10;99.90
22112;DHT22;11222;50.872;4.312;2023-03-01T17:40:29;6.00;99.90
22112;DHT22;11222;50.872;4.312;2023-03-01T17:42:56;6.00;99.90
22112;DHT22;11222;50.872;4.312;2023-03-01T17:45:22;6.00;99.90
22112;DHT22;11222;50.872;4.312;2023-03-01T17:47:48;6.00;99.90
22112;DHT22;11222;50.872;4.312;2023-03-01T17:50:14;6.00;99.90
22112;DHT22;11222;50.872;4.312;2023-03-01T17:52:39;5.90;99.90
22112;DHT22;11222;50.872;4.312;2023-03-01T17:55:09;5.90;99.90
22112;DHT22;11222;50.872;4.312;2023-03-01T17:57:40;5.90;99.90